Time;durP1;ratioP1;P1;durP2;ratioP2;P2;SDS_P1;SDS_P2;PMS_P1;PMS_P2;Temp;Humidity;BMP_temperature;BMP_pressure;BME280_temperature;BME280_humidity;BME280_pressure;Samples;Min_cycle;Max_cycle;Signal;HPM_P1;HPM_P2
2022/11/24 00:00:25;;;;;;;0.73;0.30;;;25.80;50.00;;;;;;4103203;28;20058;-53
2022/11/24 00:02:48;;;;;;;1.80;0.73;;;25.80;50.70;;;;;;4107954;28;20046;-55
2022/11/24 00:05:10;;;;;;;0.60;0.22;;;25.80;50.00;;;;;;4110290;28;20053;-52
2022/11/24 00:07:33;;;;;;;1.08;0.20;;;25.80;49.90;;;;;;4120930;28;20089;-52
2022/11/24 00:09:55;;;;;;;4.80;0.52;;;25.90;49.90;;;;;;4116018;28;20034;-60
2022/11/24 00:12:18;;;;;;;0.75;0.30;;;25.90;49.80;;;;;;4116876;28;20043;-56
2022/11/24 00:14:40;;;;;;;2.55;0.35;;;26.00;49.70;;;;;;4121370;28;20038;-56
2022/11/24 00:17:03;;;;;;;0.20;0.20;;;26.00;49.60;;;;;;4117628;28;20077;-54
2022/11/24 00:19:25;;;;;;;0.45;0.20;;;26.00;49.60;;;;;;4113856;28;20046;-55
2022/11/24 00:21:48;;;;;;;8.98;1.00;;;26.00;49.60;;;;;;4110995;28;20042;-52
2022/11/24 00:24:11;;;;;;;1.40;0.20;;;26.00;49.60;;;;;;4106369;28;20038;-61
2022/11/24 00:26:38;;;;;;;0.98;0.40;;;26.00;49.40;;;;;;4094208;28;20519;-60
2022/11/24 00:29:03;;;;;;;0.85;0.20;;;26.10;49.50;;;;;;4093390;28;20056;-61
2022/11/24 00:31:30;;;;;;;0.40;0.40;;;26.10;49.40;;;;;;4115395;28;20454;-53
2022/11/24 00:33:55;;;;;;;2.17;0.30;;;26.10;49.30;;;;;;4107284;28;20561;-51
2022/11/24 00:36:18;;;;;;;3.55;0.43;;;26.10;49.70;;;;;;4118778;28;20109;-53
2022/11/24 00:38:41;;;;;;;0.55;0.20;;;26.20;49.50;;;;;;4112725;28;20042;-52
2022/11/24 00:41:04;;;;;;;3.30;0.57;;;26.20;49.60;;;;;;4112450;28;20038;-53
2022/11/24 00:43:26;;;;;;;1.23;0.20;;;26.20;49.60;;;;;;4112323;28;20031;-55
2022/11/24 00:45:49;;;;;;;2.20;0.30;;;26.20;49.60;;;;;;4112511;28;20059;-59
2022/11/24 00:48:11;;;;;;;0.63;0.20;;;26.20;49.40;;;;;;4114233;28;20045;-55
2022/11/24 00:50:35;;;;;;;0.73;0.20;;;26.20;49.40;;;;;;4116926;28;20508;-59
2022/11/24 00:52:57;;;;;;;1.23;0.30;;;26.30;49.40;;;;;;4108714;28;20407;-59
2022/11/24 00:55:20;;;;;;;2.67;0.80;;;26.30;49.20;;;;;;4108672;28;20132;-58
2022/11/24 00:57:44;;;;;;;3.38;0.30;;;26.30;49.60;;;;;;4111134;28;20034;-58
2022/11/24 01:00:07;;;;;;;1.67;0.30;;;26.40;49.40;;;;;;4105624;28;20050;-58
2022/11/24 01:02:30;;;;;;;5.13;0.80;;;26.40;49.30;;;;;;4108208;28;20038;-51
2022/11/24 01:04:52;;;;;;;2.67;0.40;;;26.40;49.80;;;;;;4109895;28;20057;-59
2022/11/24 01:07:15;;;;;;;0.85;0.47;;;26.40;49.70;;;;;;4094790;28;20249;-60
2022/11/24 01:09:37;;;;;;;0.93;0.68;;;26.50;49.80;;;;;;4111287;28;20090;-61
2022/11/24 01:12:03;;;;;;;3.65;0.70;;;26.50;49.60;;;;;;4108101;28;20053;-60
2022/11/24 01:14:26;;;;;;;0.93;0.38;;;26.60;49.50;;;;;;4095935;28;20203;-61
2022/11/24 01:16:48;;;;;;;2.75;0.50;;;26.60;49.40;;;;;;4104350;28;20034;-62
2022/11/24 01:19:11;;;;;;;1.73;0.52;;;26.60;49.30;;;;;;4109168;28;20374;-61
2022/11/24 01:21:33;;;;;;;5.15;0.50;;;26.60;49.20;;;;;;4108716;28;20035;-60
2022/11/24 01:23:56;;;;;;;2.30;0.40;;;26.70;49.10;;;;;;4096157;28;20043;-59
2022/11/24 01:26:21;;;;;;;1.10;0.52;;;26.70;49.10;;;;;;4114015;28;20407;-54
2022/11/24 01:28:43;;;;;;;2.85;0.50;;;26.70;49.20;;;;;;4108076;28;20037;-55
2022/11/24 01:31:07;;;;;;;2.10;0.57;;;26.70;49.50;;;;;;4108271;28;20118;-58
2022/11/24 01:33:30;;;;;;;3.10;0.47;;;26.70;48.90;;;;;;4106087;28;20050;-59
2022/11/24 01:35:53;;;;;;;1.33;0.43;;;26.70;47.60;;;;;;4108670;28;20505;-58
2022/11/24 01:38:15;;;;;;;4.32;0.80;;;26.70;46.80;;;;;;4109861;28;20037;-59
2022/11/24 01:40:38;;;;;;;4.60;0.60;;;26.60;46.00;;;;;;4111700;28;20057;-59
2022/11/24 01:43:00;;;;;;;9.13;0.70;;;26.60;46.00;;;;;;4108355;28;20045;-58
2022/11/24 01:45:34;;;;;;;1.70;0.50;;;26.60;45.60;;;;;;4108698;28;20058;-57
2022/11/24 01:47:57;;;;;;;1.67;0.57;;;26.60;45.80;;;;;;4108486;28;20085;-57
2022/11/24 01:50:20;;;;;;;4.00;0.63;;;26.60;45.80;;;;;;4109588;28;20042;-59
2022/11/24 01:52:53;;;;;;;1.13;0.40;;;26.60;45.80;;;;;;4110500;28;20284;-59
2022/11/24 01:55:30;;;;;;;3.05;0.90;;;26.50;45.70;;;;;;4110607;28;20031;-59
2022/11/24 01:58:14;;;;;;;2.13;0.43;;;26.50;45.70;;;;;;4106836;28;20118;-58
2022/11/24 02:00:40;;;;;;;2.80;0.60;;;26.50;46.00;;;;;;4112276;28;20054;-51
2022/11/24 02:03:03;;;;;;;1.70;0.40;;;26.50;45.70;;;;;;4117179;28;20065;-55
2022/11/24 02:05:43;;;;;;;1.63;0.50;;;26.50;45.70;;;;;;4117035;28;20064;-57
2022/11/24 02:08:13;;;;;;;1.63;0.68;;;26.50;45.80;;;;;;4106210;28;20118;-58
2022/11/24 02:10:36;;;;;;;0.88;0.50;;;26.50;46.40;;;;;;4108898;28;20035;-63
2022/11/24 02:12:59;;;;;;;1.98;0.40;;;26.60;46.60;;;;;;4110758;28;20043;-60
2022/11/24 02:15:23;;;;;;;1.25;0.60;;;26.60;46.90;;;;;;4110881;28;20038;-61
2022/11/24 02:17:46;;;;;;;7.63;0.73;;;26.60;47.20;;;;;;4106596;28;20101;-63
2022/11/24 02:20:10;;;;;;;2.65;1.08;;;26.60;47.50;;;;;;4107523;28;20512;-59
2022/11/24 02:22:33;;;;;;;3.83;0.63;;;26.70;47.70;;;;;;4108237;28;20396;-56
2022/11/24 02:25:15;;;;;;;4.88;0.65;;;26.70;48.20;;;;;;4098420;28;20049;-58
2022/11/24 02:27:38;;;;;;;3.72;0.73;;;26.80;48.40;;;;;;4109001;28;20064;-54
2022/11/24 02:30:01;;;;;;;2.72;0.57;;;26.80;48.40;;;;;;4114527;28;20092;-50
2022/11/24 02:32:23;;;;;;;0.88;0.50;;;26.80;48.40;;;;;;4113014;28;20475;-49
2022/11/24 02:34:46;;;;;;;2.45;0.40;;;26.90;48.30;;;;;;4109801;28;20154;-55
2022/11/24 02:37:08;;;;;;;2.95;0.40;;;26.90;48.20;;;;;;4111691;28;20046;-52
2022/11/24 02:39:31;;;;;;;1.30;0.30;;;27.00;48.20;;;;;;4105634;28;20042;-47
2022/11/24 02:42:10;;;;;;;2.33;0.32;;;27.00;48.00;;;;;;4115335;28;20030;-54
2022/11/24 02:44:37;;;;;;;2.20;0.60;;;27.00;47.80;;;;;;4109496;28;20042;-59
2022/11/24 02:47:11;;;;;;;8.30;0.82;;;27.00;47.40;;;;;;4106965;28;20799;-60
2022/11/24 02:49:33;;;;;;;1.70;0.60;;;27.00;47.10;;;;;;4096883;28;20052;-55
2022/11/24 02:51:56;;;;;;;4.45;0.63;;;27.00;47.40;;;;;;4105403;28;20223;-57
2022/11/24 02:54:19;;;;;;;3.10;0.47;;;27.10;47.60;;;;;;4108461;28;20039;-56
2022/11/24 02:56:41;;;;;;;1.08;0.40;;;27.10;47.60;;;;;;4110399;28;20066;-59
2022/11/24 02:59:03;;;;;;;2.25;0.35;;;27.10;47.50;;;;;;4108694;28;20110;-52
2022/11/24 03:01:26;;;;;;;2.72;0.50;;;27.20;47.40;;;;;;4108764;28;20113;-55
2022/11/24 03:03:49;;;;;;;4.15;0.50;;;27.20;47.30;;;;;;4107459;28;20027;-57
2022/11/24 03:06:11;;;;;;;1.75;0.45;;;27.20;47.40;;;;;;4108753;28;20128;-57
2022/11/24 03:08:34;;;;;;;0.35;0.35;;;27.20;47.20;;;;;;4108397;28;20049;-51
2022/11/24 03:10:56;;;;;;;1.00;0.50;;;27.30;47.40;;;;;;4105269;28;20150;-51
2022/11/24 03:13:19;;;;;;;2.47;0.50;;;27.30;47.40;;;;;;4111567;28;20127;-54
2022/11/24 03:15:41;;;;;;;1.15;0.50;;;27.30;47.60;;;;;;4115991;28;20042;-53
2022/11/24 03:18:04;;;;;;;1.70;0.68;;;27.30;47.60;;;;;;4109976;28;20556;-55
2022/11/24 03:20:27;;;;;;;0.57;0.40;;;27.30;47.50;;;;;;4099159;28;20439;-55
2022/11/24 03:22:50;;;;;;;6.60;0.55;;;27.30;47.60;;;;;;4110849;28;20335;-48
2022/11/24 03:25:12;;;;;;;0.83;0.40;;;27.30;47.50;;;;;;4107839;28;20066;-53
2022/11/24 03:27:35;;;;;;;0.80;0.38;;;27.40;47.40;;;;;;4107846;28;20363;-57
2022/11/24 03:29:57;;;;;;;1.20;0.50;;;27.40;47.30;;;;;;4102701;28;20067;-55
2022/11/24 03:32:20;;;;;;;1.92;0.47;;;27.40;47.20;;;;;;4106836;28;20094;-52
2022/11/24 03:34:42;;;;;;;2.60;0.50;;;27.40;47.20;;;;;;4107554;28;20038;-57
2022/11/24 03:37:05;;;;;;;1.10;0.40;;;27.40;47.10;;;;;;4106560;28;20482;-53
2022/11/24 03:39:28;;;;;;;0.30;0.22;;;27.50;47.10;;;;;;4112840;28;20478;-54
2022/11/24 03:41:51;;;;;;;0.82;0.55;;;27.50;47.10;;;;;;4112033;28;20039;-58
2022/11/24 03:44:14;;;;;;;0.60;0.40;;;27.50;47.00;;;;;;4112411;28;20162;-54
2022/11/24 03:46:36;;;;;;;0.90;0.55;;;27.50;47.00;;;;;;4108650;28;20043;-55
2022/11/24 03:48:59;;;;;;;0.73;0.43;;;27.50;47.00;;;;;;4107379;28;20066;-54
2022/11/24 03:51:21;;;;;;;2.33;0.43;;;27.60;47.00;;;;;;4104933;28;20101;-53
2022/11/24 03:53:44;;;;;;;1.55;0.32;;;27.60;46.90;;;;;;4100598;28;20428;-53
2022/11/24 03:56:06;;;;;;;0.68;0.38;;;27.60;46.90;;;;;;4107329;28;20066;-50
2022/11/24 03:58:29;;;;;;;1.33;0.20;;;27.70;47.00;;;;;;4109126;28;20212;-50
2022/11/24 04:00:53;;;;;;;0.35;0.32;;;27.70;46.90;;;;;;4104367;28;20069;-55
2022/11/24 04:03:16;;;;;;;0.50;0.50;;;27.80;46.90;;;;;;4101379;28;20621;-54
2022/11/24 04:05:39;;;;;;;1.33;0.32;;;27.80;46.80;;;;;;4105290;28;20122;-52
2022/11/24 04:08:02;;;;;;;0.98;0.40;;;27.80;46.80;;;;;;4096569;28;20636;-55
2022/11/24 04:10:24;;;;;;;;;;;27.90;47.00;;;;;;4107603;28;20049;-54
2022/11/24 04:12:47;;;;;;;2.38;0.90;;;27.90;46.90;;;;;;4109567;28;20444;-57
2022/11/24 04:15:15;;;;;;;2.33;0.57;;;28.00;46.90;;;;;;4108300;28;20078;-52
2022/11/24 04:17:37;;;;;;;3.63;0.65;;;28.00;46.80;;;;;;4102617;28;20039;-54
2022/11/24 04:20:00;;;;;;;2.67;0.68;;;28.10;46.80;;;;;;4104052;28;20137;-58
2022/11/24 04:22:22;;;;;;;2.80;0.65;;;28.10;47.00;;;;;;4094211;28;20179;-55
2022/11/24 04:24:45;;;;;;;3.20;0.50;;;28.10;46.70;;;;;;4100578;28;20066;-54
2022/11/24 04:27:08;;;;;;;1.00;0.60;;;28.20;46.60;;;;;;4098401;28;20604;-54
2022/11/24 04:29:30;;;;;;;1.00;0.40;;;28.20;46.80;;;;;;4105852;28;20039;-54
2022/11/24 04:31:53;;;;;;;2.17;0.73;;;28.30;46.50;;;;;;4105399;28;20038;-54
2022/11/24 04:34:15;;;;;;;0.73;0.50;;;28.30;46.50;;;;;;4105673;28;20406;-54
2022/11/24 04:36:39;;;;;;;2.75;0.80;;;28.40;46.50;;;;;;4106835;28;20196;-50
2022/11/24 04:39:02;;;;;;;2.67;0.43;;;28.50;46.50;;;;;;4105465;28;20046;-54
2022/11/24 04:41:24;;;;;;;1.05;0.68;;;28.60;46.50;;;;;;4108307;28;20565;-53
2022/11/24 04:43:49;;;;;;;5.13;0.40;;;28.70;46.50;;;;;;4112386;28;20038;-52
2022/11/24 04:46:12;;;;;;;1.73;0.63;;;28.70;46.50;;;;;;4105300;28;20230;-53
2022/11/24 04:48:34;;;;;;;2.17;0.45;;;28.80;46.50;;;;;;4110465;28;20482;-52
2022/11/24 04:50:57;;;;;;;1.85;0.47;;;28.90;46.30;;;;;;4111917;28;20041;-53
2022/11/24 04:53:19;;;;;;;5.25;0.80;;;28.90;46.20;;;;;;4105506;28;20034;-53
2022/11/24 04:55:42;;;;;;;1.25;0.68;;;28.90;45.20;;;;;;4092215;28;20129;-53
2022/11/24 04:58:07;;;;;;;1.13;0.77;;;28.90;44.80;;;;;;4110200;28;20236;-50
2022/11/24 05:00:30;;;;;;;1.38;0.65;;;28.90;44.50;;;;;;4112751;28;20104;-46
2022/11/24 05:02:52;;;;;;;1.10;0.57;;;28.90;44.60;;;;;;4110418;28;20494;-46
2022/11/24 05:05:15;;;;;;;2.13;0.77;;;28.90;44.50;;;;;;4109655;28;20089;-43
2022/11/24 05:07:37;;;;;;;1.25;0.60;;;29.00;44.60;;;;;;4106339;28;20138;-45
2022/11/24 05:12:40;;;;;;;1.48;0.70;;;29.00;44.40;;;;;;4106021;28;20070;-46
2022/11/24 05:15:05;;;;;;;2.72;0.95;;;29.00;44.40;;;;;;4112170;28;20065;-49
2022/11/24 05:17:32;;;;;;;0.80;0.65;;;29.00;44.30;;;;;;4104382;28;20495;-46
2022/11/24 05:19:54;;;;;;;0.98;0.60;;;29.10;44.30;;;;;;4106007;28;20418;-44
2022/11/24 05:22:17;;;;;;;2.08;0.77;;;29.00;44.40;;;;;;4106460;28;20026;-48
2022/11/24 05:24:39;;;;;;;3.28;0.77;;;29.00;44.60;;;;;;4107516;28;20034;-48
2022/11/24 05:27:02;;;;;;;1.25;0.60;;;29.00;44.70;;;;;;4104236;28;20039;-47
2022/11/24 05:29:25;;;;;;;1.70;0.60;;;28.90;44.80;;;;;;4105082;28;20130;-43
2022/11/24 05:31:47;;;;;;;2.75;0.70;;;28.90;44.70;;;;;;4106942;28;20066;-50
2022/11/24 05:34:10;;;;;;;2.17;0.70;;;29.00;44.80;;;;;;4109695;28;20121;-44
2022/11/24 05:39:13;;;;;;;1.08;0.70;;;28.90;45.00;;;;;;4106080;28;20427;-46
2022/11/24 05:41:36;;;;;;;1.60;0.57;;;28.90;44.90;;;;;;4109086;28;20458;-46
2022/11/24 05:43:58;;;;;;;2.70;0.80;;;28.90;44.80;;;;;;4108305;28;20047;-46
2022/11/24 05:46:21;;;;;;;1.70;0.60;;;29.00;45.10;;;;;;4090880;28;20447;-46
2022/11/24 05:48:43;;;;;;;1.08;0.50;;;29.00;45.10;;;;;;4110839;28;20090;-46
2022/11/24 05:51:06;;;;;;;1.27;0.63;;;29.00;44.90;;;;;;4109388;28;20121;-43
2022/11/24 05:53:29;;;;;;;1.70;0.77;;;29.00;44.90;;;;;;4107004;28;20038;-45
2022/11/24 05:55:51;;;;;;;3.17;0.77;;;29.00;44.80;;;;;;4105948;28;20034;-45
2022/11/24 05:58:14;;;;;;;1.98;0.93;;;29.00;45.00;;;;;;4099009;28;20406;-45
2022/11/24 06:00:37;;;;;;;9.85;1.05;;;29.00;44.80;;;;;;4111288;28;20047;-48
2022/11/24 06:03:00;;;;;;;1.70;0.82;;;29.00;44.80;;;;;;4106218;28;20049;-45
2022/11/24 06:05:22;;;;;;;2.40;1.10;;;29.10;45.00;;;;;;4100597;28;20633;-44
2022/11/24 06:07:45;;;;;;;2.45;1.05;;;29.10;44.90;;;;;;4109200;28;20093;-44
2022/11/24 06:10:08;;;;;;;2.22;0.75;;;29.10;45.00;;;;;;4104428;28;20511;-45
2022/11/24 06:12:31;;;;;;;5.53;1.25;;;29.10;45.00;;;;;;4106958;28;20058;-44
2022/11/24 06:14:53;;;;;;;3.58;0.90;;;29.10;44.90;;;;;;4108869;28;20494;-48
2022/11/24 06:17:16;;;;;;;4.38;1.33;;;29.10;45.60;;;;;;4109952;28;20038;-45
2022/11/24 06:19:38;;;;;;;2.17;1.15;;;29.10;44.90;;;;;;4109381;28;20212;-46
2022/11/24 06:22:01;;;;;;;3.83;1.58;;;29.10;44.80;;;;;;4108760;28;20046;-45
2022/11/24 06:24:24;;;;;;;1.77;1.02;;;29.10;44.90;;;;;;4108096;28;20046;-44
2022/11/24 06:26:46;;;;;;;3.67;1.38;;;29.20;45.00;;;;;;4107848;28;20035;-48
2022/11/24 06:29:09;;;;;;;7.85;1.38;;;29.10;45.00;;;;;;4108222;28;20061;-46
2022/11/24 06:31:31;;;;;;;5.03;1.23;;;29.10;45.10;;;;;;4106297;28;20445;-44
2022/11/24 06:33:54;;;;;;;4.00;1.00;;;29.10;45.20;;;;;;4105822;28;20042;-45
2022/11/24 06:36:17;;;;;;;4.70;1.20;;;29.10;45.20;;;;;;4106157;28;20105;-46
2022/11/24 06:38:39;;;;;;;3.10;1.20;;;29.10;45.30;;;;;;4103626;28;20126;-46
2022/11/24 06:41:05;;;;;;;3.38;1.15;;;29.10;46.00;;;;;;4104897;28;20485;-43
2022/11/24 06:43:29;;;;;;;3.90;1.45;;;29.10;45.50;;;;;;4105068;28;20108;-45
2022/11/24 06:45:54;;;;;;;5.25;1.52;;;29.10;45.50;;;;;;4102981;28;20047;-42
2022/11/24 06:48:17;;;;;;;4.55;1.50;;;29.00;45.90;;;;;;4104930;28;20035;-46
2022/11/24 06:50:39;;;;;;;3.75;1.50;;;29.00;46.50;;;;;;4092581;28;20101;-43
2022/11/24 06:53:02;;;;;;;5.32;1.50;;;29.00;46.80;;;;;;4105565;28;20043;-44
2022/11/24 06:55:24;;;;;;;7.68;1.25;;;29.10;46.80;;;;;;4102957;28;20066;-44
2022/11/24 06:57:47;;;;;;;3.42;1.00;;;29.10;47.00;;;;;;4100901;28;20286;-43
2022/11/24 07:00:11;;;;;;;4.38;1.30;;;29.10;47.10;;;;;;4102457;28;20051;-43
2022/11/24 07:02:34;;;;;;;4.95;1.20;;;29.10;47.10;;;;;;4102023;28;20154;-45
2022/11/24 07:04:56;;;;;;;2.95;1.10;;;29.20;47.20;;;;;;4101316;28;20050;-47
2022/11/24 07:07:19;;;;;;;4.95;1.40;;;29.20;47.30;;;;;;4103918;28;20493;-46
2022/11/24 07:09:42;;;;;;;3.28;1.30;;;29.30;47.30;;;;;;4107019;28;20493;-43
2022/11/24 07:12:05;;;;;;;3.13;1.88;;;29.30;47.50;;;;;;4108824;28;20045;-47
2022/11/24 07:14:27;;;;;;;3.33;1.17;;;29.30;47.50;;;;;;4102210;28;20031;-45
2022/11/24 07:16:50;;;;;;;3.97;1.30;;;29.30;47.70;;;;;;4108121;28;20038;-44
2022/11/24 07:19:12;;;;;;;5.80;1.47;;;29.30;47.80;;;;;;4102561;28;20134;-48
2022/11/24 07:21:35;;;;;;;8.45;1.80;;;29.30;48.00;;;;;;4105041;28;20447;-42
2022/11/24 07:23:58;;;;;;;25.13;2.70;;;29.30;48.00;;;;;;4105222;28;20054;-47
2022/11/24 07:26:21;;;;;;;13.73;2.20;;;29.30;48.40;;;;;;4102353;28;20657;-46
2022/11/24 07:28:43;;;;;;;;;;;29.20;48.30;;;;;;4100569;28;20093;-49
2022/11/24 07:31:11;;;;;;;14.88;2.58;;;29.10;48.40;;;;;;4101152;28;20520;-47
2022/11/24 07:33:34;;;;;;;11.35;2.08;;;29.10;48.70;;;;;;4109195;28;20045;-43
2022/11/24 07:36:00;;;;;;;5.18;1.80;;;29.00;48.50;;;;;;4108436;28;20097;-44
2022/11/24 07:38:22;;;;;;;4.07;1.40;;;29.00;48.30;;;;;;4108469;28;20043;-45
2022/11/24 07:40:45;;;;;;;3.80;1.40;;;28.90;48.20;;;;;;4102996;28;20105;-47
2022/11/24 07:43:07;;;;;;;5.22;1.55;;;28.90;48.30;;;;;;4110342;28;20062;-45
2022/11/24 07:45:30;;;;;;;4.28;1.00;;;28.80;48.20;;;;;;4111862;28;20557;-43
2022/11/24 07:47:52;;;;;;;2.13;0.90;;;28.80;48.20;;;;;;4108161;28;20037;-44
2022/11/24 07:50:15;;;;;;;2.90;1.30;;;28.80;48.20;;;;;;4114096;28;20457;-44
2022/11/24 07:52:38;;;;;;;2.80;0.97;;;28.70;48.20;;;;;;4105746;28;20039;-45
2022/11/24 07:55:00;;;;;;;3.10;1.38;;;28.60;48.00;;;;;;4104040;28;20046;-46
2022/11/24 07:57:23;;;;;;;9.88;1.45;;;28.60;48.40;;;;;;4103571;28;20042;-47
2022/11/24 07:59:45;;;;;;;5.32;1.15;;;28.60;48.60;;;;;;4103834;28;20050;-45
2022/11/24 08:02:12;;;;;;;3.83;1.33;;;28.60;48.70;;;;;;4104574;28;20094;-45
2022/11/24 08:04:36;;;;;;;6.57;0.75;;;28.60;48.80;;;;;;4103987;28;20068;-45
2022/11/24 08:06:59;;;;;;;5.22;1.08;;;28.60;48.90;;;;;;4099217;28;20125;-45
2022/11/24 08:09:21;;;;;;;3.92;0.80;;;28.60;49.00;;;;;;4096790;28;20043;-48
2022/11/24 08:11:44;;;;;;;8.98;1.10;;;28.60;49.20;;;;;;4098147;28;20360;-45
2022/11/24 08:14:07;;;;;;;4.25;1.00;;;28.60;49.20;;;;;;4097381;28;20049;-45
2022/11/24 08:16:30;;;;;;;2.95;0.80;;;28.60;49.30;;;;;;4101402;28;20427;-47
2022/11/24 08:18:55;;;;;;;1.52;0.90;;;28.60;49.30;;;;;;4099581;28;20459;-43
2022/11/24 08:21:17;;;;;;;6.78;1.17;;;28.60;49.40;;;;;;4102525;28;20273;-44
2022/11/24 08:23:40;;;;;;;2.55;0.77;;;28.60;49.40;;;;;;4104231;28;20043;-45
2022/11/24 08:26:06;;;;;;;4.93;1.00;;;28.60;49.50;;;;;;4107360;28;20043;-45
2022/11/24 08:28:28;;;;;;;3.67;0.90;;;28.60;49.60;;;;;;4104902;28;20038;-47
2022/11/24 08:30:51;;;;;;;3.47;0.90;;;28.60;49.60;;;;;;4106136;28;20106;-45
2022/11/24 08:33:13;;;;;;;5.13;0.90;;;28.60;49.60;;;;;;4099513;28;20034;-45
2022/11/24 08:35:37;;;;;;;2.85;0.82;;;28.60;49.60;;;;;;4102728;28;20037;-46
2022/11/24 08:38:00;;;;;;;6.97;1.08;;;28.60;49.70;;;;;;4102560;28;20047;-42
2022/11/24 08:40:23;;;;;;;1.73;0.70;;;28.60;49.70;;;;;;4108165;28;20066;-46
2022/11/24 08:42:45;;;;;;;2.70;0.75;;;28.60;49.70;;;;;;4099912;28;20045;-46
2022/11/24 08:45:09;;;;;;;4.80;0.88;;;28.50;49.70;;;;;;4101472;28;20068;-45
2022/11/24 08:47:31;;;;;;;3.60;0.80;;;28.50;49.80;;;;;;4106160;28;20042;-45
2022/11/24 08:49:54;;;;;;;2.38;0.70;;;28.50;49.80;;;;;;4088308;28;20475;-49
2022/11/24 08:52:16;;;;;;;4.80;0.77;;;28.50;49.90;;;;;;4102685;28;20046;-43
2022/11/24 08:54:39;;;;;;;2.83;0.63;;;28.50;50.00;;;;;;4106613;28;20484;-44
2022/11/24 08:57:02;;;;;;;2.22;0.75;;;28.50;50.00;;;;;;4089000;28;20103;-46
2022/11/24 08:59:24;;;;;;;2.80;0.85;;;28.50;50.00;;;;;;4101479;28;20132;-46
2022/11/24 09:01:48;;;;;;;2.85;0.68;;;28.40;50.00;;;;;;4102578;28;20494;-43
2022/11/24 09:04:10;;;;;;;1.27;0.55;;;28.40;50.10;;;;;;4104423;28;20050;-45
2022/11/24 09:06:33;;;;;;;4.40;0.90;;;28.40;50.10;;;;;;4106261;28;20057;-47
2022/11/24 09:08:56;;;;;;;3.58;0.47;;;28.40;50.10;;;;;;4106095;28;20503;-43
2022/11/24 09:11:19;;;;;;;1.85;0.68;;;28.40;50.10;;;;;;4107283;28;20038;-43
2022/11/24 09:13:42;;;;;;;1.42;0.70;;;28.40;50.30;;;;;;4107470;28;20120;-45
2022/11/24 09:16:20;;;;;;;4.93;1.25;;;28.40;50.30;;;;;;4105302;28;20048;-47
2022/11/24 09:18:43;;;;;;;2.65;1.00;;;28.40;50.30;;;;;;4109277;28;20146;-44
2022/11/24 09:21:10;;;;;;;1.40;0.55;;;28.40;50.40;;;;;;4109054;28;20162;-47
2022/11/24 09:23:33;;;;;;;2.50;0.80;;;28.40;50.50;;;;;;4106117;28;20089;-45
2022/11/24 09:26:10;;;;;;;4.10;0.90;;;28.30;50.40;;;;;;4105582;28;20055;-44
2022/11/24 09:28:32;;;;;;;5.45;0.80;;;28.40;50.60;;;;;;4105721;28;20075;-44
2022/11/24 09:30:55;;;;;;;4.22;1.10;;;28.30;50.60;;;;;;4103622;28;20035;-46
2022/11/24 09:33:17;;;;;;;3.78;1.10;;;28.30;50.60;;;;;;4106291;28;20031;-45
2022/11/24 09:35:40;;;;;;;10.80;1.55;;;28.30;50.60;;;;;;4091588;28;20040;-46
2022/11/24 09:38:02;;;;;;;5.10;1.63;;;28.30;50.60;;;;;;4103324;28;20542;-45
2022/11/24 09:40:25;;;;;;;4.35;1.10;;;28.30;50.80;;;;;;4096401;28;20381;-45
2022/11/24 09:43:16;;;;;;;2.25;0.55;;;28.30;51.50;;;;;;4088030;28;20042;-45
2022/11/24 09:45:51;;;;;;;2.85;0.85;;;28.30;50.80;;;;;;4047646;28;20406;-46
2022/11/24 09:48:26;;;;;;;4.53;0.90;;;28.30;50.80;;;;;;4108424;28;20114;-44
2022/11/24 09:50:51;;;;;;;3.05;0.63;;;28.30;50.80;;;;;;4110274;28;20140;-43
2022/11/24 09:53:25;;;;;;;4.70;0.80;;;28.30;50.80;;;;;;4107195;28;20052;-48
2022/11/24 09:55:49;;;;;;;4.53;1.25;;;28.30;50.90;;;;;;4110447;28;20038;-46
2022/11/24 09:58:18;;;;;;;4.32;1.17;;;28.40;50.60;;;;;;4105876;28;20046;-45
2022/11/24 10:00:42;;;;;;;2.45;1.02;;;28.40;50.50;;;;;;4095773;28;20059;-44
2022/11/24 10:03:05;;;;;;;2.72;0.88;;;28.30;50.90;;;;;;4105959;28;20157;-43
2022/11/24 10:05:32;;;;;;;4.30;1.20;;;28.40;51.10;;;;;;4112164;28;20185;-43
2022/11/24 10:08:24;;;;;;;4.10;1.13;;;28.40;50.40;;;;;;4113878;28;20053;-48
2022/11/24 10:11:02;;;;;;;5.07;1.27;;;28.30;50.80;;;;;;4047041;28;20140;-46
2022/11/24 10:13:55;;;;;;;2.72;1.10;;;28.40;51.30;;;;;;4107833;28;20067;-46
2022/11/24 10:16:29;;;;;;;4.80;0.88;;;28.40;51.30;;;;;;4106640;28;20055;-46
2022/11/24 10:19:03;;;;;;;6.38;1.38;;;28.40;51.50;;;;;;4103425;28;20133;-46
2022/11/24 10:21:46;;;;;;;4.32;1.23;;;28.40;51.30;;;;;;4108966;28;20500;-43
2022/11/24 10:24:39;;;;;;;5.75;1.10;;;28.40;51.40;;;;;;4107198;28;20038;-43
2022/11/24 10:27:11;;;;;;;1.95;0.90;;;28.40;51.40;;;;;;4110533;28;20427;-49
2022/11/24 10:29:41;;;;;;;3.05;0.80;;;28.40;51.40;;;;;;4108250;28;20039;-44
2022/11/24 10:32:19;;;;;;;2.63;0.93;;;28.50;51.50;;;;;;4108886;28;20038;-44
2022/11/24 10:34:45;;;;;;;6.28;0.93;;;28.40;51.60;;;;;;4098984;28;20043;-44
2022/11/24 10:37:16;;;;;;;2.00;0.80;;;28.50;51.60;;;;;;4097551;28;20035;-42
2022/11/24 10:40:14;;;;;;;3.15;0.88;;;28.50;51.70;;;;;;4107164;28;20082;-45
2022/11/24 10:42:37;;;;;;;2.03;0.50;;;28.50;52.30;;;;;;4066131;28;20457;-45
2022/11/24 10:45:12;;;;;;;1.67;0.80;;;28.50;51.80;;;;;;4107608;28;20160;-48
2022/11/24 10:47:34;;;;;;;2.17;0.88;;;28.50;51.80;;;;;;4105378;28;20051;-43
2022/11/24 10:50:00;;;;;;;1.48;0.65;;;28.40;51.80;;;;;;4111726;28;20121;-46
2022/11/24 10:52:26;;;;;;;2.53;0.90;;;28.50;51.90;;;;;;4106373;28;20556;-45
2022/11/24 10:55:03;;;;;;;2.60;0.77;;;28.50;52.30;;;;;;4103157;28;21242;-45
2022/11/24 10:57:44;;;;;;;2.55;0.95;;;28.50;52.30;;;;;;4107642;28;20042;-42
2022/11/24 11:00:18;;;;;;;2.63;0.80;;;28.50;52.20;;;;;;4108592;28;20054;-43
2022/11/24 11:02:41;;;;;;;2.38;0.90;;;28.50;52.20;;;;;;4103456;28;20092;-43
2022/11/24 11:05:40;;;;;;;1.15;0.70;;;28.50;52.20;;;;;;4103612;28;20441;-46
2022/11/24 11:08:15;;;;;;;2.60;0.82;;;28.50;52.00;;;;;;4100841;28;20046;-43
2022/11/24 11:10:37;;;;;;;1.80;0.70;;;28.50;51.90;;;;;;4102352;28;20039;-45
2022/11/24 11:13:01;;;;;;;1.95;0.73;;;28.60;51.70;;;;;;4103928;28;20046;-42
2022/11/24 11:15:29;;;;;;;1.33;0.57;;;28.60;51.60;;;;;;4103880;28;20611;-44
2022/11/24 11:17:56;;;;;;;1.42;0.60;;;28.60;51.50;;;;;;4103129;28;20038;-42
2022/11/24 11:20:30;;;;;;;2.33;0.80;;;28.60;51.70;;;;;;4099404;28;20892;-41
2022/11/24 11:22:52;;;;;;;;;;;28.60;51.70;;;;;;4105536;28;20031;-45
2022/11/24 11:25:23;;;;;;;1.85;0.60;;;28.50;51.60;;;;;;4105971;28;19914;-42
2022/11/24 11:27:47;;;;;;;1.63;0.52;;;28.50;51.60;;;;;;4103210;28;20483;-43
2022/11/24 11:30:27;;;;;;;2.35;0.73;;;28.50;51.70;;;;;;4104573;28;20398;-45
2022/11/24 11:33:00;;;;;;;2.72;0.90;;;28.50;51.70;;;;;;4105895;28;20509;-44
2022/11/24 11:35:28;;;;;;;1.90;0.57;;;28.50;51.70;;;;;;4103085;28;20984;-46
2022/11/24 11:37:54;;;;;;;5.55;1.15;;;28.50;51.70;;;;;;4106056;28;20049;-43
2022/11/24 11:40:25;;;;;;;7.68;0.98;;;28.50;51.00;;;;;;4104041;28;20101;-47
2022/11/24 11:42:56;;;;;;;3.72;0.95;;;28.50;50.80;;;;;;4106122;28;20046;-52
2022/11/24 11:45:22;;;;;;;3.30;1.67;;;28.40;50.40;;;;;;4092448;28;20047;-51
2022/11/24 11:47:50;;;;;;;5.07;1.42;;;28.40;49.90;;;;;;4106593;28;20038;-51
2022/11/24 11:50:15;;;;;;;4.28;1.30;;;28.30;49.80;;;;;;4104942;28;20043;-51
2022/11/24 11:52:59;;;;;;;3.67;1.52;;;28.20;49.80;;;;;;4104011;28;20499;-57
2022/11/24 11:55:28;;;;;;;5.43;1.55;;;28.20;49.70;;;;;;4103991;28;20095;-54
2022/11/24 11:58:06;;;;;;;20.02;2.47;;;28.10;50.50;;;;;;4109225;28;20565;-49
2022/11/24 12:00:31;;;;;;;7.40;1.80;;;28.00;51.10;;;;;;4106515;28;20402;-51
2022/11/24 12:03:12;;;;;;;9.80;1.45;;;28.00;51.30;;;;;;4108870;28;20038;-47
2022/11/24 12:06:19;;;;;;;7.68;1.90;;;28.00;51.40;;;;;;4105201;28;20038;-45
2022/11/24 12:09:23;;;;;;;8.70;1.38;;;27.90;51.50;;;;;;4081649;28;20347;-48
2022/11/24 12:12:26;;;;;;;5.53;1.38;;;27.90;51.70;;;;;;4108379;28;20030;-48
2022/11/24 12:15:01;;;;;;;3.85;1.17;;;27.80;51.80;;;;;;4106515;28;20547;-56
2022/11/24 12:17:45;;;;;;;3.33;1.25;;;27.80;51.90;;;;;;4103636;28;20034;-52
2022/11/24 12:20:32;;;;;;;6.07;1.23;;;27.80;51.90;;;;;;4106940;28;20099;-56
2022/11/24 12:23:15;;;;;;;6.70;1.13;;;27.70;51.90;;;;;;4105698;28;20039;-50
2022/11/24 12:25:59;;;;;;;4.33;1.20;;;27.70;52.00;;;;;;4100090;28;20043;-48
2022/11/24 12:28:29;;;;;;;2.40;0.88;;;27.70;52.00;;;;;;4105815;28;20038;-48
2022/11/24 12:31:10;;;;;;;3.95;1.23;;;27.60;52.00;;;;;;4105036;28;20110;-47
2022/11/24 12:33:48;;;;;;;2.40;0.95;;;27.60;52.10;;;;;;4105932;28;20101;-48
2022/11/24 12:36:42;;;;;;;2.85;1.10;;;27.60;52.20;;;;;;4106903;28;20398;-49
2022/11/24 12:39:17;;;;;;;3.30;1.15;;;27.60;52.20;;;;;;4090166;28;20072;-49
2022/11/24 12:42:04;;;;;;;5.32;1.02;;;27.60;52.20;;;;;;4094813;28;20081;-46
2022/11/24 12:44:49;;;;;;;2.45;0.80;;;27.60;52.40;;;;;;4108274;28;20042;-48
2022/11/24 12:47:15;;;;;;;2.55;0.90;;;27.60;52.50;;;;;;4108717;28;20054;-46